Evansville Regional Airport
KEVV : now visible

Airfield :











YOU CAN JOIN US ON...

 
LOGIN :

Register | Disclaimer

   EN    FR    IT 

 









Legend :    VFR   Marginal VFR   IFR   Intensive IFR   Very Intensive IFR
Visi :
Ceiling :
>= 8 km
>= 3000ft
5 to 8 km
1000 to 3000 ft
1500m to 5 km
500 to 1000 ft
800 to 1500m
200 to 500 ft
< 800m
< 200 ft
Symbols :   Thunderstorms  Fog  Heavy snow  Heavy precipitations  Wind > 20 kt







- Airport Elevation : 418 ft
- IATA code : EVV


KEVV - Evansville Regional

CURRENT METAR :
  • 160854Z AUTO 35009KT 10SM OVC120 M03/M07 A3000 RMK AO2 SLP164 60000 T10281067 58005

EXPIRED METARs :
  • 160754Z AUTO 36011KT 10SM SCT065 BKN075 OVC110 M03/M07 A3000 RMK AO2 SLP163 T10281072
  • 160654Z AUTO 35008KT 10SM OVC060 M03/M07 A3002 RMK AO2 SNE24 SLP171 P0000 T10281067
  • 160554Z AUTO 36010KT 9SM -SN OVC044 M03/M07 A3001 RMK AO2 SNB52 SLP169 P0000 60000 T10281067 11028 21033 401171033 51012

TAF KEVV
Valid from the 16 at 06:00 until the 17 at 06:00 UTC


160520Z 1606/1706 01008KT P6SM OVC040
FM161300 02008KT P6SM SCT110
FM161700 05007KT P6SM FEW250
FM170500 08005KT P6SM BKN150
KZID FIR / North America



MET'MAP, your aeronautical weather chart ! - Copyright ORBIFLY December 2007 - Disclaimer

ORBIFLY MET'MAP TEAM :

Programming & Development : Alexandra Zaïnal
Concept & Development : Baudouin d'Aumeries
Co-Development & Prog : Marc-Olivier Méhu
Technical & hardware support : Manuel Goepfert

Contact : metmap@orbifly.com




SOURCES & CREDITS :

   NOAA       Earth
Advisory